Ritchie, Illinois
Current Conditions -  °F | °C
As of 11:15 AM on Thursday 27 Nov 2014 (Local Time) from KJOT Reporting Station
Overcast Overcast  
Wind Chill: 17°   Ceiling: 2300
Heat Index: 26°   Visibility: 10mi
Dew Point: 17°   Wind: 9mph
Humidity: 69%   Direction: 320°NW
Pressure: 30.36"   Gusts: NA
Location:  41.3199°N, 88.0518°W
Report Text: KJOT 271715Z AUTO 32008KT 10SM OVC023 M03/M08 A3036 RMK AO2 T10341083
Loading
Personal Weather Stations






























Interactive Weather Map New forecast layout! Learn more

10-Day Weather Forecast

Advertisements
Track Severe Weather on mobile